createdAt,value
2022-12-31T00:03:45.033Z,98770.31
2022-12-31T00:07:46.516Z,98785.50
2022-12-31T00:11:47.920Z,98780.28
2022-12-31T00:15:49.348Z,98793.44
2022-12-31T00:19:52.130Z,98800.16
2022-12-31T00:23:53.570Z,98805.63
2022-12-31T00:27:54.984Z,98802.44
2022-12-31T00:31:56.425Z,98806.34
2022-12-31T00:36:06.023Z,98809.16
2022-12-31T00:40:09.301Z,98810.81
2022-12-31T00:44:11.795Z,98826.06
2022-12-31T00:48:13.229Z,98822.09
2022-12-31T00:52:16.004Z,98830.38
2022-12-31T00:56:19.776Z,98837.63
2022-12-31T01:00:21.224Z,98844.13
2022-12-31T01:04:22.662Z,98852.13
2022-12-31T01:08:25.439Z,98851.31
2022-12-31T01:12:26.834Z,98849.75
2022-12-31T01:16:31.605Z,98861.44
2022-12-31T01:20:36.173Z,98871.56
2022-12-31T01:24:39.058Z,98860.00
2022-12-31T01:28:40.743Z,98865.50
2022-12-31T01:32:42.175Z,98869.66
2022-12-31T01:36:43.672Z,98880.06
2022-12-31T01:40:46.439Z,98901.38
2022-12-31T01:44:51.914Z,98898.06
2022-12-31T01:48:56.420Z,98905.94
2022-12-31T01:53:00.725Z,98916.13
2022-12-31T01:57:04.016Z,98902.91
2022-12-31T02:01:08.119Z,98917.72
2022-12-31T02:05:17.014Z,98908.50
2022-12-31T02:09:18.505Z,98915.94
2022-12-31T02:13:21.346Z,98915.13
2022-12-31T02:17:32.414Z,98913.84
2022-12-31T02:21:50.680Z,98924.34
2022-12-31T02:26:08.625Z,98920.06
2022-12-31T02:30:15.229Z,98898.25
2022-12-31T02:34:21.023Z,98896.72
2022-12-31T02:38:24.463Z,98884.22
2022-12-31T02:42:25.922Z,98890.25
2022-12-31T02:46:37.368Z,98892.97
2022-12-31T02:50:44.841Z,98884.72
2022-12-31T02:54:55.504Z,98868.25
2022-12-31T02:59:03.300Z,98857.84
2022-12-31T03:03:07.862Z,98857.25
2022-12-31T03:07:13.092Z,98868.84
2022-12-31T03:11:14.489Z,98866.16
2022-12-31T03:15:18.831Z,98882.13
2022-12-31T03:19:21.575Z,98878.25
2022-12-31T03:23:26.137Z,98882.59
2022-12-31T03:27:27.550Z,98883.66
2022-12-31T03:31:28.970Z,98881.47
2022-12-31T03:35:34.413Z,98896.22
2022-12-31T03:39:35.817Z,98893.78
2022-12-31T03:43:37.248Z,98884.22
2022-12-31T03:47:38.983Z,98874.38
2022-12-31T03:51:41.729Z,98876.81
2022-12-31T03:55:43.272Z,98868.06
2022-12-31T03:59:44.718Z,98865.03
2022-12-31T04:03:46.149Z,98874.38
2022-12-31T04:07:48.934Z,98881.00
2022-12-31T04:11:50.369Z,98874.66
2022-12-31T04:15:51.880Z,98870.03
2022-12-31T04:19:53.304Z,98874.94
2022-12-31T04:23:56.143Z,98871.09
2022-12-31T04:27:57.600Z,98870.53
2022-12-31T04:31:59.031Z,98870.00
2022-12-31T04:36:00.796Z,98862.63
2022-12-31T04:40:06.617Z,98861.56
2022-12-31T04:44:08.379Z,98855.56
2022-12-31T04:48:09.788Z,98863.53
2022-12-31T04:52:11.179Z,98861.91
2022-12-31T04:56:14.517Z,98867.94
2022-12-31T05:00:16.257Z,98868.53
2022-12-31T05:04:17.697Z,98869.38
2022-12-31T05:08:19.603Z,98867.50
2022-12-31T05:12:22.356Z,98862.28
2022-12-31T05:16:23.866Z,98847.75
2022-12-31T05:20:25.325Z,98861.97
2022-12-31T05:24:26.729Z,98862.00
2022-12-31T05:28:29.461Z,98857.59
2022-12-31T05:32:30.949Z,98865.59
2022-12-31T05:36:32.360Z,98864.22
2022-12-31T05:40:33.797Z,98854.56
2022-12-31T05:44:36.533Z,98875.09
2022-12-31T05:48:37.930Z,98879.47
2022-12-31T05:52:39.344Z,98887.16
2022-12-31T05:56:40.807Z,98886.69
2022-12-31T06:00:43.543Z,98897.41
2022-12-31T06:04:44.976Z,98889.75
2022-12-31T06:08:49.207Z,98892.31
2022-12-31T06:12:50.643Z,98899.47
2022-12-31T06:16:53.411Z,98886.84
2022-12-31T06:20:57.612Z,98884.63
2022-12-31T06:24:59.025Z,98889.03
2022-12-31T06:29:00.434Z,98881.88
2022-12-31T06:33:03.221Z,98891.78
2022-12-31T06:37:04.659Z,98878.56
2022-12-31T06:41:09.531Z,98867.59
2022-12-31T06:45:11.313Z,98870.91
2022-12-31T06:49:14.671Z,98856.59
2022-12-31T06:53:16.099Z,98873.63
2022-12-31T06:57:18.065Z,98892.59
2022-12-31T07:01:35.244Z,98893.41
2022-12-31T07:05:45.371Z,98897.78
2022-12-31T07:09:55.610Z,98909.28
2022-12-31T07:14:07.447Z,98924.69
2022-12-31T07:18:20.856Z,98899.88
2022-12-31T07:22:24.226Z,98897.09
2022-12-31T07:26:43.561Z,98902.66
2022-12-31T07:30:52.590Z,98892.16
2022-12-31T07:35:03.421Z,98883.38
2022-12-31T07:39:10.841Z,98881.69
2022-12-31T07:43:18.046Z,98895.84
2022-12-31T07:47:21.867Z,98887.56
2022-12-31T07:51:23.776Z,98893.59
2022-12-31T07:55:26.552Z,98889.50
2022-12-31T07:59:41.181Z,98903.59
2022-12-31T08:03:52.679Z,98903.78
2022-12-31T08:07:58.191Z,98896.06
2022-12-31T08:12:02.396Z,98928.91
2022-12-31T08:16:04.515Z,98927.19
2022-12-31T08:20:07.189Z,98914.50
2022-12-31T08:24:20.302Z,98930.47
2022-12-31T08:28:45.175Z,98911.03
2022-12-31T08:32:51.659Z,98912.63
2022-12-31T08:36:59.843Z,98915.50
2022-12-31T08:41:12.292Z,98923.97
2022-12-31T08:45:24.856Z,98936.28
2022-12-31T08:49:28.344Z,98916.47
2022-12-31T08:53:30.677Z,98930.19
2022-12-31T08:57:38.029Z,98949.56
2022-12-31T09:01:56.956Z,98923.16
2022-12-31T09:06:06.209Z,98930.22
2022-12-31T09:10:17.856Z,98923.88
2022-12-31T09:14:33.489Z,98944.84
2022-12-31T09:18:41.064Z,98923.06
2022-12-31T09:22:42.844Z,98950.56
2022-12-31T09:26:52.486Z,98961.72
2022-12-31T09:31:01.097Z,98952.91
2022-12-31T09:35:12.519Z,98951.63
2022-12-31T09:39:22.476Z,98957.03
2022-12-31T09:44:00.885Z,98965.38
2022-12-31T09:48:42.134Z,98963.81
2022-12-31T09:53:02.454Z,98950.50
2022-12-31T09:57:19.403Z,98962.44
2022-12-31T10:01:31.220Z,98967.13
2022-12-31T10:05:48.789Z,98961.97
2022-12-31T10:10:00.728Z,98966.84
2022-12-31T10:14:28.327Z,98961.31
2022-12-31T10:18:44.298Z,98967.31
2022-12-31T10:23:20.657Z,98958.88
2022-12-31T10:27:48.726Z,98973.75
2022-12-31T10:32:07.410Z,98965.31
2022-12-31T10:36:17.802Z,98964.88
2022-12-31T10:40:28.907Z,98966.38
2022-12-31T10:45:04.227Z,98975.09
2022-12-31T10:49:30.159Z,98989.88
2022-12-31T10:53:52.000Z,98985.94
2022-12-31T10:58:28.926Z,98988.22
2022-12-31T11:02:52.841Z,98991.47
2022-12-31T11:07:22.595Z,98973.44
2022-12-31T11:11:38.182Z,98986.59
2022-12-31T11:16:09.762Z,98974.28
2022-12-31T11:20:30.973Z,98978.38
2022-12-31T11:24:44.263Z,98977.81
2022-12-31T11:29:08.212Z,98981.38
2022-12-31T11:33:24.347Z,98974.72
2022-12-31T11:37:36.629Z,98992.97
2022-12-31T11:41:46.223Z,98992.69
2022-12-31T11:46:08.593Z,99002.94
2022-12-31T11:50:28.712Z,98997.59
2022-12-31T11:54:45.706Z,99002.97
2022-12-31T11:58:49.377Z,98992.53
2022-12-31T12:02:53.738Z,98989.09
2022-12-31T12:06:55.661Z,98998.56
2022-12-31T12:11:04.990Z,99003.88
2022-12-31T12:15:10.146Z,99004.34
2022-12-31T12:19:17.963Z,98988.19
2022-12-31T12:23:24.500Z,98989.47
2022-12-31T12:27:30.601Z,98987.44
2022-12-31T12:31:32.127Z,98977.81
2022-12-31T12:35:35.506Z,98986.03
2022-12-31T12:39:37.201Z,98994.16
2022-12-31T12:43:40.000Z,98984.47
2022-12-31T12:47:42.953Z,98997.88
2022-12-31T12:52:02.801Z,98995.91
2022-12-31T12:56:12.880Z,99008.19
2022-12-31T13:00:21.689Z,99000.59
2022-12-31T13:04:47.491Z,98988.91
2022-12-31T13:09:04.128Z,98998.25
2022-12-31T13:13:24.900Z,98994.56
2022-12-31T13:17:39.843Z,98988.63
2022-12-31T13:21:48.865Z,98987.06
2022-12-31T13:25:59.917Z,98999.47
2022-12-31T13:30:04.105Z,99001.56
2022-12-31T13:34:13.348Z,99004.31
2022-12-31T13:38:18.899Z,99016.81
2022-12-31T13:42:25.453Z,99021.88
2022-12-31T13:46:40.668Z,99044.09
2022-12-31T13:50:51.186Z,99038.56
2022-12-31T13:54:56.582Z,99016.94
2022-12-31T13:59:00.155Z,99015.22
2022-12-31T14:03:11.364Z,99022.84
2022-12-31T14:07:16.785Z,99037.69
2022-12-31T14:11:27.002Z,99049.34
2022-12-31T14:15:32.751Z,99061.53
2022-12-31T14:19:47.991Z,99063.19
2022-12-31T14:24:01.829Z,99067.88
2022-12-31T14:28:06.420Z,99082.91
2022-12-31T14:32:24.204Z,99090.81
2022-12-31T14:36:37.043Z,99093.41
2022-12-31T14:40:52.175Z,99093.41
2022-12-31T14:45:06.497Z,99098.91
2022-12-31T14:49:23.761Z,99095.59
2022-12-31T14:53:26.203Z,99099.59
2022-12-31T14:57:54.340Z,99100.34
2022-12-31T15:01:57.386Z,99095.88
2022-12-31T15:06:09.739Z,99097.34
2022-12-31T15:10:18.708Z,99109.16
2022-12-31T15:15:00.972Z,99121.84
2022-12-31T15:19:44.472Z,99127.84
2022-12-31T15:23:46.424Z,99115.75
2022-12-31T15:27:48.762Z,99138.34
2022-12-31T15:31:52.595Z,99133.94
2022-12-31T15:35:56.898Z,99139.66
2022-12-31T15:40:16.509Z,99136.44
2022-12-31T15:44:24.448Z,99133.72
2022-12-31T15:48:36.137Z,99141.47
2022-12-31T15:52:43.368Z,99143.09
2022-12-31T15:56:45.751Z,99139.63
2022-12-31T16:01:00.446Z,99135.50
2022-12-31T16:05:03.451Z,99146.47
2022-12-31T16:09:08.461Z,99160.34
2022-12-31T16:13:20.040Z,99148.28
2022-12-31T16:17:27.026Z,99150.06
2022-12-31T16:21:32.822Z,99150.59
2022-12-31T16:25:35.622Z,99147.09
2022-12-31T16:29:41.575Z,99148.69
2022-12-31T16:33:44.040Z,99156.41
2022-12-31T16:37:46.948Z,99159.66
2022-12-31T16:41:48.354Z,99158.66
2022-12-31T16:45:49.933Z,99172.41
2022-12-31T16:49:59.333Z,99176.63
2022-12-31T16:54:03.140Z,99176.31
2022-12-31T16:58:15.087Z,99160.88
2022-12-31T17:02:21.908Z,99176.91
2022-12-31T17:06:23.595Z,99173.69
2022-12-31T17:10:32.933Z,99164.91
2022-12-31T17:14:48.011Z,99176.47
2022-12-31T17:18:49.667Z,99168.78
2022-12-31T17:22:54.424Z,99180.84
2022-12-31T17:27:03.555Z,99189.59
2022-12-31T17:31:27.695Z,99212.19
2022-12-31T17:35:31.510Z,99219.44
2022-12-31T17:39:43.183Z,99220.44
2022-12-31T17:43:50.461Z,99221.50
2022-12-31T17:47:52.221Z,99218.06
2022-12-31T17:51:53.633Z,99228.22
2022-12-31T17:56:00.107Z,99235.94
2022-12-31T18:00:05.480Z,99234.81
2022-12-31T18:04:10.859Z,99240.34
2022-12-31T18:08:12.394Z,99240.88
2022-12-31T18:12:14.799Z,99248.09
2022-12-31T18:16:17.668Z,99241.00
2022-12-31T18:20:19.277Z,99246.00
2022-12-31T18:24:25.901Z,99236.09
2022-12-31T18:28:27.659Z,99236.09
2022-12-31T18:32:31.255Z,99231.44
2022-12-31T18:36:32.734Z,99226.50
2022-12-31T18:40:34.179Z,99224.34
2022-12-31T18:44:35.607Z,99210.25
2022-12-31T18:48:38.372Z,99205.31
2022-12-31T18:52:39.862Z,99208.06
2022-12-31T18:56:47.045Z,99220.47
2022-12-31T19:00:50.757Z,99218.53
2022-12-31T19:04:53.530Z,99212.41
2022-12-31T19:08:55.444Z,99203.06
2022-12-31T19:12:56.883Z,99199.75
2022-12-31T19:16:58.293Z,99192.03
2022-12-31T19:21:01.446Z,99189.75
2022-12-31T19:25:03.197Z,99198.09
2022-12-31T19:29:04.613Z,99193.66
2022-12-31T19:33:06.037Z,99190.34
2022-12-31T19:37:11.864Z,99199.75
2022-12-31T19:41:15.415Z,99194.25
2022-12-31T19:45:19.537Z,99199.22
2022-12-31T19:49:21.082Z,99182.06
2022-12-31T19:53:26.683Z,99185.94
2022-12-31T19:57:28.149Z,99178.81
2022-12-31T20:01:29.722Z,99184.81
2022-12-31T20:05:31.441Z,99185.44
2022-12-31T20:09:34.227Z,99193.13
2022-12-31T20:13:36.089Z,99194.19
2022-12-31T20:17:37.608Z,99188.31
2022-12-31T20:21:39.032Z,99185.47
2022-12-31T20:25:41.827Z,99188.97
2022-12-31T20:29:43.246Z,99186.97
2022-12-31T20:33:44.820Z,99180.59
2022-12-31T20:37:46.384Z,99156.19
2022-12-31T20:41:49.216Z,99173.03
2022-12-31T20:45:50.638Z,99169.16
2022-12-31T20:50:10.897Z,99163.53
2022-12-31T20:54:12.883Z,99169.59
2022-12-31T20:58:15.668Z,99170.28
2022-12-31T21:02:21.638Z,99163.97
2022-12-31T21:06:23.436Z,99150.13
2022-12-31T21:10:24.841Z,99150.13
2022-12-31T21:14:27.581Z,99130.75
2022-12-31T21:18:29.073Z,99123.78
2022-12-31T21:22:30.597Z,99122.09
2022-12-31T21:26:32.180Z,99111.81
2022-12-31T21:30:34.973Z,99108.47
2022-12-31T21:34:36.389Z,99114.56
2022-12-31T21:38:38.087Z,99119.47
2022-12-31T21:42:39.535Z,99106.00
2022-12-31T21:47:00.894Z,99116.63
2022-12-31T21:51:09.193Z,99130.31
2022-12-31T21:55:11.444Z,99139.81
2022-12-31T21:59:12.854Z,99144.13
2022-12-31T22:03:15.752Z,99146.63
2022-12-31T22:07:17.330Z,99155.97
2022-12-31T22:11:21.032Z,99160.22
2022-12-31T22:15:22.433Z,99177.28
2022-12-31T22:19:25.160Z,99191.13
2022-12-31T22:23:26.679Z,99203.00
2022-12-31T22:27:29.915Z,99189.72
2022-12-31T22:31:31.629Z,99205.75
2022-12-31T22:35:34.427Z,99216.88
2022-12-31T22:39:43.968Z,99217.22
2022-12-31T22:43:47.728Z,99220.34
2022-12-31T22:47:49.162Z,99235.69
2022-12-31T22:51:56.255Z,99236.94
2022-12-31T22:56:00.423Z,99230.59
2022-12-31T23:00:01.886Z,99237.69
2022-12-31T23:04:03.977Z,99237.59
2022-12-31T23:08:17.012Z,99244.53
2022-12-31T23:12:23.627Z,99259.75
2022-12-31T23:16:26.972Z,99255.97
2022-12-31T23:20:28.400Z,99266.72
2022-12-31T23:24:31.153Z,99262.16
2022-12-31T23:28:32.588Z,99265.56
2022-12-31T23:32:33.990Z,99261.50
2022-12-31T23:36:35.418Z,99263.66
2022-12-31T23:40:38.503Z,99256.78
2022-12-31T23:44:39.901Z,99271.44
2022-12-31T23:48:41.325Z,99270.31
2022-12-31T23:52:42.723Z,99272.72
2022-12-31T23:56:45.503Z,99273.28
